Time;durP1;ratioP1;P1;durP2;ratioP2;P2;SDS_P1;SDS_P2;PMS_P1;PMS_P2;Temp;Humidity;BMP_temperature;BMP_pressure;BME280_temperature;BME280_humidity;BME280_pressure;Samples;Min_cycle;Max_cycle;Signal;HPM_P1;HPM_P2
2022/07/16 00:03:37;;;;;;;;;;;;;;;22.70;44.82;101376.06;4916964;29;4060;-68
2022/07/16 00:06:04;;;;;;;;;;;;;;;22.70;45.01;101373.19;4915782;29;4643;-68
2022/07/16 00:08:30;;;;;;;;;;;;;;;22.68;45.02;101376.72;4919754;29;4267;-68
2022/07/16 00:10:56;;;;;;;;;;;;;;;22.69;44.82;101374.59;4919050;29;5301;-68
2022/07/16 00:13:23;;;;;;;;;;;;;;;22.69;44.97;101363.03;4915975;29;5386;-68
2022/07/16 00:15:49;;;;;;;;;;;;;;;22.69;45.20;101374.59;4914959;29;4438;-68
2022/07/16 00:21:01;;;;;;;;;;;;;;;22.68;45.26;101362.28;4918786;29;4136;-68
2022/07/16 00:23:27;;;;;;;;;;;;;;;22.69;45.03;101365.91;4917798;29;4287;-68
2022/07/16 00:25:53;;;;;;;;;;;;;;;22.69;45.10;101354.38;4919426;29;4257;-67
2022/07/16 00:28:20;;;;;;;;;;;;;;;22.70;45.11;101361.63;4913139;29;4275;-68
2022/07/16 00:30:46;;;;;;;;;;;;;;;22.70;44.94;101364.50;4914409;29;4177;-63
2022/07/16 00:33:12;;;;;;;;;;;;;;;22.69;45.02;101360.16;4917191;29;4403;-68
2022/07/16 00:35:39;;;;;;;;;;;;;;;22.70;45.26;101352.97;4915330;29;5342;-68
2022/07/16 00:38:07;;;;;;;;;;;;;;;22.68;44.97;101350.75;4920268;29;4264;-68
2022/07/16 00:40:34;;;;;;;;;;;;;;;22.68;45.34;101355.78;4916091;29;4225;-68
2022/07/16 00:43:01;;;;;;;;;;;;;;;22.69;45.29;101351.50;4916636;29;5369;-68
2022/07/16 00:45:27;;;;;;;;;;;;;;;22.68;45.22;101352.91;4918963;29;4438;-68
2022/07/16 00:47:53;;;;;;;;;;;;;;;22.67;45.45;101342.72;4908485;29;5842;-67
2022/07/16 00:50:20;;;;;;;;;;;;;;;22.68;45.26;101344.25;4908254;29;4126;-68
2022/07/16 00:52:46;;;;;;;;;;;;;;;22.67;45.36;101334.06;4919662;29;5254;-64
2022/07/16 00:55:13;;;;;;;;;;;;;;;22.67;45.40;101343.47;4898530;29;5550;-68
2022/07/16 00:57:39;;;;;;;;;;;;;;;22.68;45.50;101332.69;4914539;29;4188;-67
2022/07/16 01:00:06;;;;;;;;;;;;;;;22.67;45.43;101337.69;4914209;29;5545;-67
2022/07/16 01:02:33;;;;;;;;;;;;;;;22.68;45.31;101333.44;4916169;29;5446;-68
2022/07/16 01:04:59;;;;;;;;;;;;;;;22.66;45.36;101324.69;4915630;29;4091;-69
2022/07/16 01:07:26;;;;;;;;;;;;;;;22.66;45.17;101323.94;4902211;29;4284;-68
2022/07/16 01:09:52;;;;;;;;;;;;;;;22.67;45.43;101323.25;4915299;29;5238;-68
2022/07/16 01:12:18;;;;;;;;;;;;;;;22.67;45.43;101323.25;4916646;29;4204;-68
2022/07/16 01:14:45;;;;;;;;;;;;;;;22.66;45.59;101323.94;4924593;29;4210;-68
2022/07/16 01:17:15;;;;;;;;;;;;;;;22.66;45.46;101318.16;4916482;29;5364;-67
2022/07/16 01:19:41;;;;;;;;;;;;;;;22.68;45.47;101315.38;4909584;29;4198;-68
2022/07/16 01:22:09;;;;;;;;;;;;;;;22.67;45.57;101313.88;4920762;29;4213;-68
2022/07/16 01:24:38;;;;;;;;;;;;;;;22.67;45.22;101311.72;4923889;29;4190;-68
2022/07/16 01:27:05;;;;;;;;;;;;;;;22.66;45.30;101306.63;4918761;29;4229;-67
2022/07/16 01:29:31;;;;;;;;;;;;;;;22.67;45.14;101311.72;4911599;29;5208;-68
2022/07/16 01:31:58;;;;;;;;;;;;;;;22.67;45.22;101302.31;4910455;29;5327;-67
2022/07/16 01:34:27;;;;;;;;;;;;;;;22.68;45.42;101315.38;4914631;29;4133;-68
2022/07/16 01:37:01;;;;;;;;;;;;;;;22.67;45.50;101297.28;4919904;29;4211;-67
2022/07/16 01:39:28;;;;;;;;;;;;;;;22.66;45.41;101295.06;4918904;29;4418;-68
2022/07/16 01:41:55;;;;;;;;;;;;;;;22.66;45.54;101289.28;4919371;29;4264;-68
2022/07/16 01:44:23;;;;;;;;;;;;;;;22.67;45.51;101285.00;4916302;29;4350;-68
2022/07/16 01:46:53;;;;;;;;;;;;;;;22.67;45.50;101282.13;4918006;29;5356;-68
2022/07/16 01:49:19;;;;;;;;;;;;;;;22.66;45.65;101277.75;4922271;29;5434;-68
2022/07/16 01:51:46;;;;;;;;;;;;;;;22.65;45.57;101276.25;4920099;29;4619;-68
2022/07/16 01:54:12;;;;;;;;;;;;;;;22.66;45.18;101266.19;4917406;29;5074;-67
2022/07/16 01:56:38;;;;;;;;;;;;;;;22.65;45.39;101262.56;4920227;29;4115;-68
2022/07/16 01:59:05;;;;;;;;;;;;;;;22.66;45.56;101269.09;4917706;29;4184;-68
2022/07/16 02:01:31;;;;;;;;;;;;;;;22.65;45.58;101259.66;4919886;29;4113;-68
2022/07/16 02:03:57;;;;;;;;;;;;;;;22.65;45.69;101253.91;4915879;29;4302;-67
2022/07/16 02:06:24;;;;;;;;;;;;;;;22.65;45.53;101256.03;4912752;29;4106;-68
2022/07/16 02:08:50;;;;;;;;;;;;;;;22.65;45.49;101253.91;4914417;29;4247;-68
2022/07/16 02:11:17;;;;;;;;;;;;;;;22.65;45.39;101251.00;4921178;29;4467;-68
2022/07/16 02:13:43;;;;;;;;;;;;;;;22.65;45.39;101247.38;4920917;29;4242;-67
2022/07/16 02:16:10;;;;;;;;;;;;;;;22.64;45.62;101251.69;4917863;29;4208;-67
2022/07/16 02:18:36;;;;;;;;;;;;;;;22.64;45.46;101251.69;4917032;29;4305;-68
2022/07/16 02:21:03;;;;;;;;;;;;;;;22.64;45.77;101252.41;4915334;29;4198;-68
2022/07/16 02:23:29;;;;;;;;;;;;;;;22.64;45.53;101243.03;4918992;29;4372;-68
2022/07/16 02:25:55;;;;;;;;;;;;;;;22.63;45.73;101239.41;4917583;29;4257;-68
2022/07/16 02:28:22;;;;;;;;;;;;;;;22.63;45.76;101236.50;4915884;29;4589;-68
2022/07/16 02:30:48;;;;;;;;;;;;;;;22.63;45.73;101232.84;4917028;29;5289;-68
2022/07/16 02:33:16;;;;;;;;;;;;;;;22.63;45.49;101222.09;4911354;29;4420;-68
2022/07/16 02:35:42;;;;;;;;;;;;;;;22.64;45.72;101228.59;4916337;29;4238;-68
2022/07/16 02:38:09;;;;;;;;;;;;;;;22.62;45.73;101220.56;4919001;29;4220;-68
2022/07/16 02:40:35;;;;;;;;;;;;;;;22.62;45.73;101225.63;4922232;29;6362;-68
2022/07/16 02:43:02;;;;;;;;;;;;;;;22.62;45.66;101219.84;4920095;29;4204;-68
2022/07/16 02:45:29;;;;;;;;;;;;;;;22.62;45.68;101214.06;4916695;29;4129;-68
2022/07/16 02:47:55;;;;;;;;;;;;;;;22.62;45.74;101216.94;4917416;29;5489;-68
2022/07/16 02:50:22;;;;;;;;;;;;;;;22.62;45.63;101205.41;4915542;29;4138;-69
2022/07/16 02:52:48;;;;;;;;;;;;;;;22.62;45.69;101205.41;4917737;29;5534;-69
2022/07/16 02:55:15;;;;;;;;;;;;;;;22.61;45.73;101206.78;4919513;29;4292;-71
2022/07/16 02:57:41;;;;;;;;;;;;;;;22.59;45.86;101196.66;4919696;29;4131;-70
2022/07/16 03:00:08;;;;;;;;;;;;;;;22.61;45.78;101198.13;4918344;29;5474;-68
2022/07/16 03:02:35;;;;;;;;;;;;;;;22.60;45.71;101194.50;4916366;29;4305;-69
2022/07/16 03:05:01;;;;;;;;;;;;;;;22.60;45.80;101188.75;4917565;29;5191;-69
2022/07/16 03:07:28;;;;;;;;;;;;;;;22.60;45.61;101188.75;4919683;29;4221;-69
2022/07/16 03:09:54;;;;;;;;;;;;;;;22.59;45.57;101190.88;4916299;29;5295;-69
2022/07/16 03:12:20;;;;;;;;;;;;;;;22.58;45.83;101188.66;4922915;29;4262;-70
2022/07/16 03:14:47;;;;;;;;;;;;;;;22.58;45.68;101194.41;4920130;29;4214;-68
2022/07/16 03:17:13;;;;;;;;;;;;;;;22.58;45.78;101186.50;4915438;29;4122;-69
2022/07/16 03:19:39;;;;;;;;;;;;;;;22.57;45.66;101190.78;4915012;29;4270;-69
2022/07/16 03:22:06;;;;;;;;;;;;;;;22.57;45.89;101201.59;4920569;29;4132;-69
2022/07/16 03:24:32;;;;;;;;;;;;;;;22.57;45.62;101211.00;4920487;29;4244;-68
2022/07/16 03:26:59;;;;;;;;;;;;;;;22.57;45.69;101196.56;4921227;29;5511;-69
2022/07/16 03:29:27;;;;;;;;;;;;;;;22.56;45.52;101200.88;4915357;29;4567;-69
2022/07/16 03:31:54;;;;;;;;;;;;;;;22.56;45.58;101189.31;4915340;29;4323;-66
2022/07/16 03:34:23;;;;;;;;;;;;;;;22.54;45.88;101197.13;4918005;29;4034;-64
2022/07/16 03:36:51;;;;;;;;;;;;;;;22.54;45.73;101197.91;4919211;29;4318;-63
2022/07/16 03:39:17;;;;;;;;;;;;;;;22.54;45.91;101192.13;4918711;29;5412;-64
2022/07/16 03:41:44;;;;;;;;;;;;;;;22.55;45.59;101204.41;4916135;29;5514;-63
2022/07/16 03:44:11;;;;;;;;;;;;;;;22.54;46.06;101200.78;4914941;29;4211;-63
2022/07/16 03:46:38;;;;;;;;;;;;;;;22.54;45.99;101191.34;4919521;29;4273;-63
2022/07/16 03:49:05;;;;;;;;;;;;;;;22.53;45.91;101190.63;4915038;29;4197;-63
2022/07/16 03:51:31;;;;;;;;;;;;;;;22.51;45.84;101178.97;4917869;29;4205;-63
2022/07/16 03:53:57;;;;;;;;;;;;;;;22.52;46.07;101179.75;4919532;29;4145;-63
2022/07/16 03:56:27;;;;;;;;;;;;;;;22.52;45.85;101166.06;4917953;29;5365;-63
2022/07/16 03:58:53;;;;;;;;;;;;;;;22.51;46.08;101167.44;4918158;29;5429;-63
2022/07/16 04:01:19;;;;;;;;;;;;;;;22.52;46.10;101165.31;4917051;29;4196;-63
2022/07/16 04:03:46;;;;;;;;;;;;;;;22.53;45.82;101158.13;4917277;29;4152;-63
2022/07/16 04:06:12;;;;;;;;;;;;;;;22.53;45.87;101155.25;4918246;29;4280;-63
2022/07/16 04:08:39;;;;;;;;;;;;;;;22.52;45.83;101145.84;4919145;29;5336;-64
2022/07/16 04:11:05;;;;;;;;;;;;;;;22.52;46.12;101137.19;4914845;29;4688;-63
2022/07/16 04:13:32;;;;;;;;;;;;;;;22.52;45.93;101134.31;4915978;29;4269;-63
2022/07/16 04:15:58;;;;;;;;;;;;;;;22.52;46.14;101137.19;4915990;29;4211;-64
2022/07/16 04:18:25;;;;;;;;;;;;;;;22.52;46.14;101140.09;4918665;29;4219;-64
2022/07/16 04:20:51;;;;;;;;;;;;;;;22.51;46.16;101132.81;4917382;29;4255;-63
2022/07/16 04:23:17;;;;;;;;;;;;;;;22.51;46.20;101132.81;4921489;29;4246;-63
2022/07/16 04:25:44;;;;;;;;;;;;;;;22.52;45.86;101130.69;4918809;29;4195;-63
2022/07/16 04:28:10;;;;;;;;;;;;;;;22.51;46.19;101135.69;4918883;29;4332;-63
2022/07/16 04:30:37;;;;;;;;;;;;;;;22.52;46.15;101142.22;4914624;29;4197;-63
2022/07/16 04:33:03;;;;;;;;;;;;;;;22.52;46.15;101124.91;4918501;29;4192;-63
2022/07/16 04:35:30;;;;;;;;;;;;;;;22.51;46.23;101134.97;4917187;29;4109;-63
2022/07/16 04:37:56;;;;;;;;;;;;;;;22.53;46.03;101130.00;4909748;29;4290;-60
2022/07/16 04:40:22;;;;;;;;;;;;;;;22.53;46.12;101132.91;4916729;29;5233;-59
2022/07/16 04:42:49;;;;;;;;;;;;;;;22.55;46.28;101124.31;4911902;29;5407;-60
2022/07/16 04:45:15;;;;;;;;;;;;;;;22.54;46.29;101122.84;4920112;29;4046;-60
2022/07/16 04:47:42;;;;;;;;;;;;;;;22.58;46.03;101125.88;4920380;29;4112;-60
2022/07/16 04:50:08;;;;;;;;;;;;;;;22.57;45.79;101109.97;4919630;29;4211;-59
2022/07/16 04:52:35;;;;;;;;;;;;;;;22.58;46.13;101119.38;4920335;29;4335;-59
2022/07/16 04:55:01;;;;;;;;;;;;;;;22.58;45.92;101116.50;4918583;29;4304;-60
2022/07/16 04:57:28;;;;;;;;;;;;;;;22.63;45.56;101112.41;4921079;29;4343;-60
2022/07/16 04:59:54;;;;;;;;;;;;;;;22.61;45.59;101115.19;4921715;29;5409;-60
2022/07/16 05:05:06;;;;;;;;;;;;;;;22.68;45.18;101124.84;4919557;29;4436;-60
2022/07/16 05:07:32;;;;;;;;;;;;;;;22.65;45.16;101120.38;4920686;29;4251;-59
2022/07/16 05:09:59;;;;;;;;;;;;;;;22.68;45.04;101113.31;4920434;29;4198;-60
2022/07/16 05:12:25;;;;;;;;;;;;;;;22.64;44.73;101113.13;4919140;29;4253;-59
2022/07/16 05:14:51;;;;;;;;;;;;;;;22.69;44.94;101117.66;4921700;29;4477;-60
2022/07/16 05:17:18;;;;;;;;;;;;;;;22.66;44.83;101107.44;4923415;29;4226;-60
2022/07/16 05:19:44;;;;;;;;;;;;;;;22.67;44.62;101100.25;4925773;29;4639;-59
2022/07/16 05:22:11;;;;;;;;;;;;;;;22.67;44.71;101106.75;4920637;29;4422;-60
2022/07/16 05:24:37;;;;;;;;;;;;;;;22.72;44.69;101096.88;4921706;29;4248;-58
2022/07/16 05:27:04;;;;;;;;;;;;;;;22.75;44.41;101094.81;4923383;29;4218;-58
2022/07/16 05:29:30;;;;;;;;;;;;;;;22.78;44.75;101099.25;4922143;29;4497;-62
2022/07/16 05:31:57;;;;;;;;;;;;;;;22.76;44.71;101102.06;4921823;29;4471;-63
2022/07/16 05:34:24;;;;;;;;;;;;;;;22.78;44.54;101105.03;4919587;29;4180;-60
2022/07/16 05:36:50;;;;;;;;;;;;;;;22.85;44.46;101097.38;4917517;29;4609;-64
2022/07/16 05:39:16;;;;;;;;;;;;;;;22.70;44.50;101105.47;4916701;29;4076;-64
2022/07/16 05:41:43;;;;;;;;;;;;;;;22.67;44.37;101106.03;4919025;29;4275;-67
2022/07/16 05:44:09;;;;;;;;;;;;;;;22.82;44.39;101107.34;4918799;29;5223;-64
2022/07/16 05:46:36;;;;;;;;;;;;;;;22.66;44.77;101104.56;4919142;29;4110;-62
2022/07/16 05:49:31;;;;;;;;;;;;;;;22.71;44.71;101103.31;4918697;29;4247;-60
2022/07/16 05:51:57;;;;;;;;;;;;;;;22.72;44.53;101105.56;4920300;29;4790;-60
2022/07/16 05:54:23;;;;;;;;;;;;;;;22.72;44.26;101113.44;4923091;29;4485;-60
2022/07/16 05:56:50;;;;;;;;;;;;;;;22.71;44.53;101106.19;4921934;29;4924;-60
2022/07/16 05:59:16;;;;;;;;;;;;;;;22.71;44.49;101118.47;4918827;29;4427;-60
2022/07/16 06:01:42;;;;;;;;;;;;;;;22.71;44.48;101106.94;4915151;29;4175;-60
2022/07/16 06:04:14;;;;;;;;;;;;;;;22.70;44.58;101117.00;4917554;29;4180;-60
2022/07/16 06:06:41;;;;;;;;;;;;;;;22.75;44.30;101120.81;4920849;29;6148;-59
2022/07/16 06:09:07;;;;;;;;;;;;;;;22.75;44.56;101129.47;4919160;29;4586;-60
2022/07/16 06:11:34;;;;;;;;;;;;;;;22.71;44.71;101129.28;4920512;29;5484;-68
2022/07/16 06:14:00;;;;;;;;;;;;;;;22.68;44.80;101130.63;4920520;29;4305;-63
2022/07/16 06:16:27;;;;;;;;;;;;;;;22.65;44.96;101132.66;4921996;29;4256;-63
2022/07/16 06:18:53;;;;;;;;;;;;;;;22.57;46.23;101141.00;4919802;29;4317;-69
2022/07/16 06:21:20;;;;;;;;;;;;;;;22.49;46.99;101141.38;4919503;29;5456;-64
2022/07/16 06:23:46;;;;;;;;;;;;;;;22.52;47.72;101148.75;4915633;29;5315;-64
2022/07/16 06:26:12;;;;;;;;;;;;;;;22.54;47.67;101151.72;4918372;29;5785;-63
2022/07/16 06:28:39;;;;;;;;;;;;;;;22.54;47.56;101157.50;4919773;29;4206;-64
2022/07/16 06:31:05;;;;;;;;;;;;;;;22.55;47.04;101158.97;4916158;29;4618;-63
2022/07/16 06:33:31;;;;;;;;;;;;;;;22.55;46.71;101147.41;4919542;29;6000;-64
2022/07/16 06:35:58;;;;;;;;;;;;;;;22.56;46.92;101148.16;4918747;29;5957;-64
2022/07/16 06:38:24;;;;;;;;;;;;;;;22.54;46.68;101157.50;4920690;29;4634;-63
2022/07/16 06:40:51;;;;;;;;;;;;;;;22.53;47.01;101166.78;4843930;29;3953;-64
2022/07/16 06:43:17;;;;;;;;;;;;;;;22.51;47.02;101161.66;4902246;29;4202;-64
2022/07/16 06:45:44;;;;;;;;;;;;;;;22.51;46.99;101169.59;4915449;29;5370;-64
2022/07/16 06:48:11;;;;;;;;;;;;;;;22.51;46.70;101164.56;4917594;29;4203;-63
2022/07/16 06:50:37;;;;;;;;;;;;;;;22.51;46.70;101169.59;4920505;29;4243;-63
2022/07/16 06:53:04;;;;;;;;;;;;;;;22.51;46.89;101166.72;4919929;29;4282;-63
2022/07/16 06:55:30;;;;;;;;;;;;;;;22.49;46.84;101167.34;4919791;29;4204;-64
2022/07/16 06:57:56;;;;;;;;;;;;;;;22.49;46.79;101178.91;4918954;29;4319;-63
2022/07/16 07:00:23;;;;;;;;;;;;;;;22.49;46.64;101172.38;4916702;29;4367;-66
2022/07/16 07:02:49;;;;;;;;;;;;;;;22.49;46.47;101176.00;4920945;29;5577;-65
2022/07/16 07:05:15;;;;;;;;;;;;;;;22.48;46.74;101176.69;4920523;29;4259;-63
2022/07/16 07:07:43;;;;;;;;;;;;;;;22.47;46.70;101175.94;4919826;29;4234;-65
2022/07/16 07:10:09;;;;;;;;;;;;;;;22.47;46.91;101175.94;4917980;29;4240;-65
2022/07/16 07:12:36;;;;;;;;;;;;;;;22.47;46.86;101152.88;4921834;29;4208;-65
2022/07/16 07:15:03;;;;;;;;;;;;;;;22.45;46.57;101161.44;4919392;29;4023;-65
2022/07/16 07:17:29;;;;;;;;;;;;;;;22.46;46.71;101180.22;4916644;29;4111;-63
2022/07/16 07:19:56;;;;;;;;;;;;;;;22.46;46.58;101180.22;4918475;29;4275;-66
2022/07/16 07:22:22;;;;;;;;;;;;;;;22.46;46.84;101167.94;4919826;29;4106;-65
2022/07/16 07:24:50;;;;;;;;;;;;;;;22.45;46.78;101172.97;4916782;29;4273;-65
2022/07/16 07:27:16;;;;;;;;;;;;;;;22.45;46.86;101178.75;4919985;29;4633;-65
2022/07/16 07:29:42;;;;;;;;;;;;;;;22.46;47.10;101188.13;4919404;29;5429;-65
2022/07/16 07:32:09;;;;;;;;;;;;;;;22.46;46.75;101197.53;4921234;29;4382;-64
2022/07/16 07:34:35;;;;;;;;;;;;;;;22.45;46.80;101190.28;4916602;29;4298;-65
2022/07/16 07:37:01;;;;;;;;;;;;;;;22.45;46.64;101195.28;4919337;29;5494;-65
2022/07/16 07:39:28;;;;;;;;;;;;;;;22.45;47.16;101207.59;4919739;29;4232;-65
2022/07/16 07:41:54;;;;;;;;;;;;;;;22.45;46.90;101201.06;4915994;29;5589;-65
2022/07/16 07:44:21;;;;;;;;;;;;;;;22.44;46.83;101191.66;4918002;29;5408;-65
2022/07/16 07:46:47;;;;;;;;;;;;;;;22.44;46.83;101200.31;4919891;29;4189;-65
2022/07/16 07:49:13;;;;;;;;;;;;;;;22.45;47.08;101201.84;4921896;29;4248;-64
2022/07/16 07:51:40;;;;;;;;;;;;;;;22.45;46.79;101206.84;4917934;29;4259;-65
2022/07/16 07:54:06;;;;;;;;;;;;;;;22.45;47.10;101207.59;4916308;29;4366;-64
2022/07/16 07:56:33;;;;;;;;;;;;;;;22.45;47.05;101206.84;4916304;29;4203;-64
2022/07/16 07:58:59;;;;;;;;;;;;;;;22.45;46.90;101206.84;4919429;29;4306;-65
2022/07/16 08:01:25;;;;;;;;;;;;;;;22.45;46.77;101215.50;4918915;29;4508;-65
2022/07/16 08:03:52;;;;;;;;;;;;;;;22.45;47.09;101213.38;4918020;29;5521;-64
2022/07/16 08:06:18;;;;;;;;;;;;;;;22.46;46.90;101211.22;4917201;29;4195;-64
2022/07/16 08:08:45;;;;;;;;;;;;;;;22.46;47.20;101208.34;4917897;29;4440;-65
2022/07/16 08:11:11;;;;;;;;;;;;;;;22.45;47.05;101207.59;4920466;29;5158;-65
2022/07/16 08:13:38;;;;;;;;;;;;;;;22.45;46.96;101219.16;4920522;29;4168;-65
2022/07/16 08:16:24;;;;;;;;;;;;;;;22.45;47.08;101204.72;4915136;29;4190;-65
2022/07/16 08:18:50;;;;;;;;;;;;;;;22.44;47.00;101211.88;4913794;29;4328;-65
2022/07/16 08:21:17;;;;;;;;;;;;;;;22.45;47.19;101206.84;4912926;29;4201;-65
2022/07/16 08:26:28;;;;;;;;;;;;;;;22.43;47.07;101213.28;4917484;29;4191;-64
2022/07/16 08:28:55;;;;;;;;;;;;;;;22.44;47.05;101217.66;4913774;29;4136;-61
2022/07/16 08:31:21;;;;;;;;;;;;;;;22.37;47.97;101230.31;4917118;29;4209;-62
2022/07/16 08:33:50;;;;;;;;;;;;;;;22.34;49.15;101220.09;4913992;29;4260;-62
2022/07/16 08:36:16;;;;;;;;;;;;;;;22.30;49.55;101229.31;4910059;29;5338;-65
2022/07/16 08:38:43;;;;;;;;;;;;;;;22.35;49.13;101222.31;4914391;29;4212;-62
2022/07/16 08:41:09;;;;;;;;;;;;;;;22.39;49.01;101227.53;4911016;29;4205;-66
2022/07/16 08:43:36;;;;;;;;;;;;;;;22.39;48.93;101227.53;4900258;29;4178;-65
2022/07/16 08:46:02;;;;;;;;;;;;;;;22.40;49.12;101226.13;4917661;29;4412;-64
2022/07/16 08:48:30;;;;;;;;;;;;;;;22.43;48.94;101229.84;4916023;29;4264;-64
2022/07/16 08:50:58;;;;;;;;;;;;;;;22.44;48.73;101245.75;4915166;29;5287;-65
2022/07/16 08:53:24;;;;;;;;;;;;;;;22.44;48.32;101237.84;4899466;29;4242;-66
2022/07/16 08:55:52;;;;;;;;;;;;;;;22.45;48.40;101248.00;4918892;29;4200;-64
2022/07/16 08:58:18;;;;;;;;;;;;;;;22.45;48.45;101242.22;4892113;29;4989;-61
2022/07/16 09:00:45;;;;;;;;;;;;;;;22.37;48.49;101250.53;4916577;29;4268;-60
2022/07/16 09:03:14;;;;;;;;;;;;;;;22.39;48.25;101250.63;4916741;29;5261;-61
2022/07/16 09:05:41;;;;;;;;;;;;;;;22.35;47.38;101256.94;4915235;29;5516;-60
2022/07/16 09:08:07;;;;;;;;;;;;;;;22.30;46.86;101255.28;4914931;29;4318;-61
2022/07/16 09:10:34;;;;;;;;;;;;;;;22.28;46.39;101260.22;4912685;29;4187;-60
2022/07/16 09:13:01;;;;;;;;;;;;;;;22.26;46.00;101266.63;4914164;29;5537;-60
2022/07/16 09:15:33;;;;;;;;;;;;;;;22.27;45.18;101268.13;4911223;29;4274;-60
2022/07/16 09:18:18;;;;;;;;;;;;;;;22.25;45.02;101264.41;4911816;29;4310;-60
2022/07/16 09:20:54;;;;;;;;;;;;;;;22.24;45.26;101262.91;4916068;29;5570;-61
2022/07/16 09:23:30;;;;;;;;;;;;;;;22.20;45.56;101263.47;4913762;29;4320;-61
2022/07/16 09:26:18;;;;;;;;;;;;;;;22.22;45.24;101265.69;4915764;29;4515;-60
2022/07/16 09:28:46;;;;;;;;;;;;;;;22.23;45.34;101258.53;4913113;29;4257;-61
2022/07/16 09:31:32;;;;;;;;;;;;;;;22.24;45.15;101280.22;4913180;29;4194;-64
2022/07/16 09:34:08;;;;;;;;;;;;;;;22.26;45.10;101277.44;4909784;29;4593;-65
2022/07/16 09:36:35;;;;;;;;;;;;;;;22.26;45.42;101272.41;4916336;29;5400;-64
2022/07/16 09:39:01;;;;;;;;;;;;;;;22.28;45.36;101274.63;4916778;29;5365;-64
2022/07/16 09:41:29;;;;;;;;;;;;;;;22.30;45.63;101266.06;4920237;29;5440;-64
2022/07/16 09:43:55;;;;;;;;;;;;;;;22.30;45.39;101266.81;4905934;29;4221;-65
2022/07/16 09:46:22;;;;;;;;;;;;;;;22.31;45.68;101268.31;4916553;29;4139;-65
2022/07/16 09:48:50;;;;;;;;;;;;;;;22.35;45.74;101267.75;4915560;29;4253;-64
2022/07/16 09:51:18;;;;;;;;;;;;;;;22.35;45.52;101279.28;4919133;29;5208;-64
2022/07/16 09:53:46;;;;;;;;;;;;;;;22.36;45.69;101277.91;4917692;29;4191;-65
2022/07/16 09:56:22;;;;;;;;;;;;;;;22.35;45.38;101262.69;4919746;29;5389;-65
2022/07/16 09:58:50;;;;;;;;;;;;;;;22.37;45.58;101270.72;4919742;29;4324;-64
2022/07/16 10:01:16;;;;;;;;;;;;;;;22.37;45.80;101283.00;4919335;29;4451;-65
2022/07/16 10:03:43;;;;;;;;;;;;;;;22.37;45.53;101274.34;4916516;29;4295;-64
2022/07/16 10:06:09;;;;;;;;;;;;;;;22.38;45.64;101267.19;4917210;29;6416;-64
2022/07/16 10:08:37;;;;;;;;;;;;;;;22.38;45.62;101286.66;4919039;29;4227;-64
2022/07/16 10:11:04;;;;;;;;;;;;;;;22.38;46.12;101301.81;4914969;29;4320;-65
2022/07/16 10:13:31;;;;;;;;;;;;;;;22.38;46.13;101301.06;4917414;29;4341;-64
2022/07/16 10:15:57;;;;;;;;;;;;;;;22.39;46.04;101314.09;4905693;29;4251;-65
2022/07/16 10:18:29;;;;;;;;;;;;;;;22.40;46.00;101311.94;4917282;29;4256;-64
2022/07/16 10:21:02;;;;;;;;;;;;;;;22.40;45.98;101320.59;4917193;29;5125;-64
2022/07/16 10:23:29;;;;;;;;;;;;;;;22.41;46.40;101317.06;4919180;29;4302;-65
2022/07/16 10:25:59;;;;;;;;;;;;;;;22.41;46.27;101308.41;4913256;29;4233;-65
2022/07/16 10:28:34;;;;;;;;;;;;;;;22.43;46.30;101319.31;4916881;29;4277;-64
2022/07/16 10:31:27;;;;;;;;;;;;;;;22.43;46.12;101319.31;4914607;29;5236;-64
2022/07/16 10:34:16;;;;;;;;;;;;;;;22.43;46.43;101331.59;4916155;29;5570;-64
2022/07/16 10:36:52;;;;;;;;;;;;;;;22.43;46.25;101331.59;4905846;29;4318;-64
2022/07/16 10:39:19;;;;;;;;;;;;;;;22.43;46.25;101337.38;4918982;29;5573;-64
2022/07/16 10:41:53;;;;;;;;;;;;;;;22.43;46.63;101325.81;4917507;29;4214;-64
2022/07/16 10:44:20;;;;;;;;;;;;;;;22.43;46.60;101331.59;4913460;29;4141;-64
2022/07/16 10:46:53;;;;;;;;;;;;;;;22.44;46.57;101335.97;4909556;29;4226;-64
2022/07/16 10:49:19;;;;;;;;;;;;;;;22.45;46.60;101340.34;4908475;29;4148;-64
2022/07/16 10:52:03;;;;;;;;;;;;;;;22.45;46.55;101342.47;4916910;29;4224;-64
2022/07/16 10:54:30;;;;;;;;;;;;;;;22.43;46.58;101343.13;4916560;29;5385;-63
2022/07/16 10:56:58;;;;;;;;;;;;;;;22.44;46.31;101355.41;4918525;29;4449;-64
2022/07/16 10:59:26;;;;;;;;;;;;;;;22.45;46.62;101357.66;4916923;29;4284;-65
2022/07/16 11:01:53;;;;;;;;;;;;;;;22.44;46.52;101361.94;4915002;29;4255;-64
2022/07/16 11:04:29;;;;;;;;;;;;;;;22.46;46.45;101359.13;4916927;29;4271;-65
2022/07/16 11:06:56;;;;;;;;;;;;;;;22.47;46.72;101348.34;4911684;29;4288;-65
2022/07/16 11:09:30;;;;;;;;;;;;;;;22.47;46.37;101354.88;4909084;29;4314;-64
2022/07/16 11:12:04;;;;;;;;;;;;;;;22.47;46.71;101354.88;4909457;29;4211;-64
2022/07/16 11:14:30;;;;;;;;;;;;;;;22.48;46.54;101356.34;4916702;29;5435;-64
2022/07/16 11:16:57;;;;;;;;;;;;;;;22.48;46.50;101350.56;4915649;29;5568;-64
2022/07/16 11:19:24;;;;;;;;;;;;;;;22.48;46.40;101373.66;4921080;29;4261;-64
2022/07/16 11:21:56;;;;;;;;;;;;;;;22.49;46.54;101352.06;4917367;29;4220;-64
2022/07/16 11:24:26;;;;;;;;;;;;;;;22.49;46.62;101363.59;4913477;29;4291;-64
2022/07/16 11:26:53;;;;;;;;;;;;;;;22.49;46.58;101354.94;4912549;29;4617;-65
2022/07/16 11:29:19;;;;;;;;;;;;;;;22.50;46.42;101365.09;4916012;29;4591;-64
2022/07/16 11:31:46;;;;;;;;;;;;;;;22.51;46.61;101355.03;4915773;29;4388;-65
2022/07/16 11:34:12;;;;;;;;;;;;;;;22.52;46.44;101364.47;4910983;29;4200;-65
2022/07/16 11:36:39;;;;;;;;;;;;;;;22.52;46.35;101368.09;4912935;29;4313;-65
2022/07/16 11:39:07;;;;;;;;;;;;;;;22.52;46.62;101379.63;4914196;29;4309;-65
2022/07/16 11:41:33;;;;;;;;;;;;;;;22.52;46.76;101378.88;4915416;29;4256;-65
2022/07/16 11:44:06;;;;;;;;;;;;;;;22.52;46.67;101378.88;4912269;29;5319;-64
2022/07/16 11:46:33;;;;;;;;;;;;;;;22.52;46.59;101378.88;4915087;29;4215;-64
2022/07/16 11:48:59;;;;;;;;;;;;;;;22.53;46.82;101375.34;4914023;29;4204;-64
2022/07/16 11:51:28;;;;;;;;;;;;;;;22.54;46.77;101379.72;4916993;29;5362;-64
2022/07/16 11:53:54;;;;;;;;;;;;;;;22.54;46.36;101382.59;4912203;29;4240;-65
2022/07/16 11:56:33;;;;;;;;;;;;;;;22.54;46.31;101387.63;4914379;29;5343;-64
2022/07/16 11:59:00;;;;;;;;;;;;;;;22.55;46.37;101383.34;4917662;29;5393;-65
2022/07/16 12:01:30;;;;;;;;;;;;;;;22.56;46.11;101384.81;4920582;29;4083;-65
2022/07/16 12:03:57;;;;;;;;;;;;;;;22.55;46.44;101378.31;4916220;29;4254;-65
2022/07/16 12:06:23;;;;;;;;;;;;;;;22.55;46.26;101395.63;4917347;29;5427;-65
2022/07/16 12:08:51;;;;;;;;;;;;;;;22.55;46.40;101400.66;4914819;29;5519;-65
2022/07/16 12:11:18;;;;;;;;;;;;;;;22.55;46.57;101401.41;4913215;29;4297;-65
2022/07/16 12:13:51;;;;;;;;;;;;;;;22.56;46.68;101397.13;4915612;29;4233;-65
2022/07/16 12:16:23;;;;;;;;;;;;;;;22.58;46.14;101399.34;4913563;29;5256;-65
2022/07/16 12:19:03;;;;;;;;;;;;;;;22.58;46.36;101382.78;4915802;29;4382;-64
2022/07/16 12:21:30;;;;;;;;;;;;;;;22.58;46.14;101405.84;4917270;29;5228;-65
2022/07/16 12:23:57;;;;;;;;;;;;;;;22.59;46.45;101401.59;4915226;29;4326;-65
2022/07/16 12:26:27;;;;;;;;;;;;;;;22.59;46.40;101401.59;4904636;29;5568;-66
2022/07/16 12:28:55;;;;;;;;;;;;;;;22.59;46.32;101418.91;4909774;29;4213;-65
2022/07/16 12:31:21;;;;;;;;;;;;;;;22.61;46.34;101424.03;4915089;29;4184;-64
2022/07/16 12:33:50;;;;;;;;;;;;;;;22.62;46.38;101424.78;4900749;29;4182;-62
2022/07/16 12:36:18;;;;;;;;;;;;;;;22.62;46.57;101411.09;4912978;29;4213;-64
2022/07/16 12:38:55;;;;;;;;;;;;;;;22.64;46.54;101424.88;4915808;29;4184;-64
2022/07/16 12:41:25;;;;;;;;;;;;;;;22.63;46.54;101423.38;4918029;29;4189;-64
2022/07/16 12:43:53;;;;;;;;;;;;;;;22.64;46.40;101416.22;4913044;29;4245;-64
2022/07/16 12:46:23;;;;;;;;;;;;;;;22.64;46.38;101416.22;4919005;29;4233;-64
2022/07/16 12:48:53;;;;;;;;;;;;;;;22.65;46.31;101427.09;4916618;29;4322;-64
2022/07/16 12:51:20;;;;;;;;;;;;;;;22.65;46.17;101432.13;4920651;29;4249;-64
2022/07/16 12:53:46;;;;;;;;;;;;;;;22.66;46.08;101433.63;4921121;29;4259;-64
2022/07/16 12:58:59;;;;;;;;;;;;;;;22.67;45.58;101412.75;4919846;29;4319;-64
2022/07/16 13:01:25;;;;;;;;;;;;;;;22.66;45.37;101427.84;4919608;29;5354;-64
2022/07/16 13:03:52;;;;;;;;;;;;;;;22.67;45.42;101432.22;4920818;29;5298;-64